Time;durP1;ratioP1;P1;durP2;ratioP2;P2;SDS_P1;SDS_P2;PMS_P1;PMS_P2;Temp;Humidity;BMP_temperature;BMP_pressure;BME280_temperature;BME280_humidity;BME280_pressure;Samples;Min_cycle;Max_cycle;Signal;HPM_P1;HPM_P2
2023/04/09 00:01:13;;;;;;;44.50;22.97;;;7.40;99.90;;;;;;5093442;28;20510;-82
2023/04/09 00:03:39;;;;;;;41.83;23.00;;;7.30;99.90;;;;;;5092706;28;20036;-82
2023/04/09 00:06:07;;;;;;;43.13;23.05;;;7.30;99.90;;;;;;5093069;28;20078;-82
2023/04/09 00:08:33;;;;;;;44.10;22.67;;;7.30;99.90;;;;;;5092409;28;20059;-82
2023/04/09 00:10:59;;;;;;;41.10;22.98;;;7.30;99.90;;;;;;5092330;28;20044;-82
2023/04/09 00:13:25;;;;;;;44.78;23.42;;;7.30;99.90;;;;;;5125897;27;20130;-82
2023/04/09 00:15:50;;;;;;;42.65;23.50;;;7.30;99.90;;;;;;5093673;28;20079;-82
2023/04/09 00:18:16;;;;;;;41.22;22.88;;;7.30;99.90;;;;;;5093404;28;20071;-82
2023/04/09 00:20:43;;;;;;;43.80;22.45;;;7.30;99.90;;;;;;5091395;28;20062;-82
2023/04/09 00:23:09;;;;;;;39.00;21.90;;;7.30;99.90;;;;;;5083524;28;20127;-82
2023/04/09 00:25:35;;;;;;;42.03;23.17;;;7.30;99.90;;;;;;5072236;28;20132;-82
2023/04/09 00:28:00;;;;;;;40.03;21.33;;;7.30;99.90;;;;;;5072065;28;20097;-82
2023/04/09 00:30:29;;;;;;;42.00;22.98;;;7.30;99.90;;;;;;5072050;28;20091;-82
2023/04/09 00:32:55;;;;;;;42.30;22.60;;;7.30;99.90;;;;;;5070680;28;20127;-82
2023/04/09 00:35:21;;;;;;;42.97;23.17;;;7.30;99.90;;;;;;5071683;28;20131;-82
2023/04/09 00:37:47;;;;;;;40.22;22.33;;;7.30;99.90;;;;;;5071643;28;20056;-82
2023/04/09 00:40:13;;;;;;;42.35;22.02;;;7.20;99.90;;;;;;5071164;28;20131;-82
2023/04/09 00:42:38;;;;;;;42.45;22.08;;;7.20;99.90;;;;;;5071673;28;20076;-82
2023/04/09 00:45:05;;;;;;;40.45;21.83;;;7.10;99.90;;;;;;5072591;28;20400;-82
2023/04/09 00:47:32;;;;;;;41.28;21.88;;;7.00;99.90;;;;;;5070811;28;20098;-82
2023/04/09 00:49:59;;;;;;;44.00;23.17;;;6.90;99.90;;;;;;5071574;28;20377;-82
2023/04/09 00:52:25;;;;;;;42.38;22.42;;;6.80;99.90;;;;;;5073062;28;20036;-82
2023/04/09 00:54:51;;;;;;;43.80;22.13;;;6.70;99.90;;;;;;5070778;28;20048;-82
2023/04/09 00:57:18;;;;;;;41.03;22.48;;;6.60;99.90;;;;;;5070491;28;20045;-82
2023/04/09 00:59:44;;;;;;;42.50;21.15;;;6.50;99.90;;;;;;5071616;28;20048;-82
2023/04/09 01:02:11;;;;;;;37.78;21.02;;;6.40;99.90;;;;;;5071715;28;20044;-82
2023/04/09 01:04:38;;;;;;;41.70;21.73;;;6.30;99.90;;;;;;5071528;28;20048;-82
2023/04/09 01:07:11;;;;;;;39.28;20.35;;;6.20;99.90;;;;;;5070833;28;20040;-82
2023/04/09 01:09:44;;;;;;;40.75;21.30;;;6.20;99.90;;;;;;5070074;28;20045;-82
2023/04/09 01:12:13;;;;;;;39.90;21.27;;;6.10;99.90;;;;;;5071034;28;20040;-82
2023/04/09 01:15:06;;;;;;;42.17;22.20;;;5.90;99.90;;;;;;5070987;28;20302;-82
2023/04/09 01:17:46;;;;;;;43.00;22.37;;;5.90;99.90;;;;;;5071313;28;20053;-82
2023/04/09 01:20:34;;;;;;;39.23;20.90;;;5.80;99.90;;;;;;5072004;28;20036;-81
2023/04/09 01:23:24;;;;;;;44.37;21.83;;;5.70;99.90;;;;;;5069984;28;20044;-82
2023/04/09 01:26:08;;;;;;;46.33;22.43;;;5.60;99.90;;;;;;5071289;28;20051;-82
2023/04/09 01:28:45;;;;;;;43.63;22.75;;;5.50;99.90;;;;;;5072415;28;20095;-82
2023/04/09 01:31:16;;;;;;;41.40;20.87;;;5.50;99.90;;;;;;5070917;28;20127;-82
2023/04/09 01:33:42;;;;;;;44.63;22.57;;;5.50;99.90;;;;;;5070738;28;20041;-82
2023/04/09 01:36:09;;;;;;;46.67;23.27;;;5.50;99.90;;;;;;5090032;28;20074;-82
2023/04/09 01:38:36;;;;;;;45.83;22.93;;;5.60;99.90;;;;;;5091102;28;20040;-82
2023/04/09 01:41:02;;;;;;;43.40;23.40;;;6.10;99.90;;;;;;5091773;28;20040;-82
2023/04/09 01:43:29;;;;;;;43.43;22.00;;;5.60;99.90;;;;;;5090128;28;20411;-82
2023/04/09 01:45:55;;;;;;;42.10;21.70;;;5.60;99.90;;;;;;5091937;28;20149;-82
2023/04/09 01:48:22;;;;;;;45.07;22.33;;;6.70;99.90;;;;;;5091060;28;20140;-82
2023/04/09 01:50:49;;;;;;;48.77;23.77;;;5.70;99.90;;;;;;5124245;28;20040;-82
2023/04/09 01:53:15;;;;;;;46.73;23.47;;;5.70;99.90;;;;;;5090542;28;20036;-82
2023/04/09 01:55:40;;;;;;;47.83;23.50;;;5.70;99.90;;;;;;5092111;28;20388;-82
2023/04/09 01:58:06;;;;;;;49.67;24.47;;;5.80;99.90;;;;;;5082958;28;20047;-82
2023/04/09 02:00:37;;;;;;;47.37;23.30;;;5.80;99.90;;;;;;5071763;28;20041;-82
2023/04/09 02:03:43;;;;;;;48.97;24.17;;;5.80;99.90;;;;;;5071577;28;20377;-82
2023/04/09 02:06:16;;;;;;;44.93;23.70;;;5.90;99.90;;;;;;5066572;28;20064;-82
2023/04/09 02:08:46;;;;;;;51.70;24.63;;;5.90;99.90;;;;;;5071990;28;20380;-82
2023/04/09 02:11:13;;;;;;;53.60;25.37;;;6.00;99.90;;;;;;5071265;28;20045;-81
2023/04/09 02:13:40;;;;;;;48.90;24.83;;;6.00;99.90;;;;;;5070760;28;20059;-81
2023/04/09 02:16:09;;;;;;;52.23;25.30;;;6.00;99.90;;;;;;5070303;28;20062;-82
2023/04/09 02:18:35;;;;;;;51.83;23.67;;;6.00;99.90;;;;;;5069946;28;20041;-82
2023/04/09 02:21:01;;;;;;;47.10;24.70;;;6.10;99.90;;;;;;5071210;28;20123;-82
2023/04/09 02:23:27;;;;;;;53.10;25.43;;;6.10;99.90;;;;;;5071939;28;20043;-82
2023/04/09 02:25:53;;;;;;;47.80;24.07;;;6.10;99.90;;;;;;5069584;28;20037;-82
2023/04/09 02:28:19;;;;;;;54.90;26.10;;;6.10;99.90;;;;;;5071622;28;20068;-82
2023/04/09 02:30:44;;;;;;;53.70;26.13;;;6.10;99.90;;;;;;5071811;28;20051;-82
2023/04/09 02:33:10;;;;;;;51.47;26.77;;;6.20;99.90;;;;;;5070491;28;20055;-82
2023/04/09 02:35:36;;;;;;;50.53;26.17;;;6.20;99.90;;;;;;5071473;28;20071;-82
2023/04/09 02:38:02;;;;;;;53.25;26.67;;;6.20;99.90;;;;;;5071347;28;20056;-82
2023/04/09 02:40:28;;;;;;;52.80;26.50;;;6.30;99.90;;;;;;5071179;28;20076;-82
2023/04/09 02:42:54;;;;;;;53.57;26.60;;;6.30;99.90;;;;;;5070307;28;20522;-82
2023/04/09 02:45:19;;;;;;;54.43;27.23;;;7.20;99.90;;;;;;5071837;28;20038;-82
2023/04/09 02:47:45;;;;;;;56.20;27.03;;;6.30;99.90;;;;;;5073318;28;20548;-82
2023/04/09 02:50:11;;;;;;;54.20;26.93;;;6.30;99.90;;;;;;5074762;28;20079;-82
2023/04/09 02:52:36;;;;;;;56.13;28.07;;;6.30;99.90;;;;;;5074182;28;20576;-82
2023/04/09 02:55:02;;;;;;;52.23;26.27;;;6.30;99.90;;;;;;5072843;28;20033;-82
2023/04/09 02:57:28;;;;;;;59.10;27.43;;;6.30;99.90;;;;;;5073503;28;20389;-82
2023/04/09 02:59:54;;;;;;;52.30;25.38;;;6.30;99.90;;;;;;5079164;28;20043;-82
2023/04/09 03:02:20;;;;;;;50.73;26.80;;;6.40;99.90;;;;;;5094300;28;20044;-82
2023/04/09 03:04:45;;;;;;;58.57;28.00;;;6.40;99.90;;;;;;5125721;27;20040;-82
2023/04/09 03:07:11;;;;;;;53.17;27.03;;;6.40;99.90;;;;;;5074057;28;20044;-82
2023/04/09 03:09:37;;;;;;;56.67;27.37;;;6.40;99.90;;;;;;5073174;28;20044;-82
2023/04/09 03:12:02;;;;;;;50.53;26.13;;;7.10;99.90;;;;;;5073477;28;20435;-82
2023/04/09 03:14:28;;;;;;;54.70;27.00;;;6.50;99.90;;;;;;5074372;28;20480;-82
2023/04/09 03:16:53;;;;;;;55.03;26.37;;;6.50;99.90;;;;;;5073595;28;20032;-82
2023/04/09 03:19:19;;;;;;;55.37;26.67;;;6.50;99.90;;;;;;5073202;28;20044;-82
2023/04/09 03:21:45;;;;;;;53.47;26.83;;;6.50;99.90;;;;;;5072630;28;20044;-82
2023/04/09 03:24:11;;;;;;;51.97;27.03;;;6.50;99.90;;;;;;5074623;28;20450;-82
2023/04/09 03:26:37;;;;;;;50.22;26.10;;;6.60;99.90;;;;;;5074223;28;20119;-82
2023/04/09 03:29:04;;;;;;;50.40;25.63;;;6.60;99.90;;;;;;5073673;28;20045;-82
2023/04/09 03:31:30;;;;;;;50.35;26.20;;;6.60;99.90;;;;;;5074525;28;20132;-82
2023/04/09 03:33:56;;;;;;;48.55;25.90;;;6.60;99.90;;;;;;5072444;28;20091;-82
2023/04/09 03:36:21;;;;;;;49.88;25.48;;;6.60;99.90;;;;;;5072445;28;20084;-82
2023/04/09 03:38:47;;;;;;;50.05;25.55;;;6.60;99.90;;;;;;5074363;28;20049;-82
2023/04/09 03:41:13;;;;;;;51.10;26.15;;;6.70;99.90;;;;;;5072891;28;20548;-82
2023/04/09 03:43:38;;;;;;;49.10;25.85;;;7.20;99.90;;;;;;5072248;28;20053;-82
2023/04/09 03:46:14;;;;;;;48.42;25.70;;;6.70;99.90;;;;;;5072964;28;20043;-82
2023/04/09 03:48:41;;;;;;;45.38;25.42;;;6.70;99.90;;;;;;5072983;28;20045;-81
2023/04/09 03:51:19;;;;;;;49.17;25.80;;;6.70;99.90;;;;;;5071881;28;20082;-82
2023/04/09 03:53:44;;;;;;;50.35;25.40;;;6.70;99.90;;;;;;5073965;28;20496;-82
2023/04/09 03:56:10;;;;;;;45.03;25.57;;;7.30;99.90;;;;;;5072611;28;20052;-81
2023/04/09 03:58:36;;;;;;;51.05;26.83;;;6.70;99.90;;;;;;5073306;28;20040;-81
2023/04/09 04:01:02;;;;;;;50.20;25.48;;;7.90;99.90;;;;;;5068168;28;20091;-82
2023/04/09 04:03:28;;;;;;;50.15;25.58;;;6.70;99.90;;;;;;5097810;28;20036;-82
2023/04/09 04:05:58;;;;;;;47.03;25.80;;;6.70;99.90;;;;;;5071487;28;20170;-82
2023/04/09 04:08:24;;;;;;;45.03;24.63;;;6.70;99.90;;;;;;5073677;28;20052;-82
2023/04/09 04:10:50;;;;;;;47.28;24.08;;;6.70;99.90;;;;;;5073007;28;20051;-82
2023/04/09 04:13:15;;;;;;;44.40;24.13;;;6.70;99.90;;;;;;5073232;28;20043;-82
2023/04/09 04:15:41;;;;;;;42.95;23.63;;;6.70;99.90;;;;;;5072672;28;20045;-82
2023/04/09 04:18:08;;;;;;;42.47;23.20;;;6.70;99.90;;;;;;5071043;28;20041;-82
2023/04/09 04:20:35;;;;;;;41.70;22.20;;;6.70;99.90;;;;;;5073756;28;20040;-82
2023/04/09 04:23:00;;;;;;;46.58;23.15;;;7.20;99.90;;;;;;5071928;28;20048;-82
2023/04/09 04:25:26;;;;;;;41.17;22.45;;;6.70;99.90;;;;;;5071216;28;20493;-82
2023/04/09 04:27:53;;;;;;;41.17;21.40;;;6.70;99.90;;;;;;5071466;28;20555;-82
2023/04/09 04:30:20;;;;;;;41.92;22.42;;;6.70;99.90;;;;;;5072073;28;20110;-82
2023/04/09 04:32:46;;;;;;;42.38;22.48;;;6.70;99.90;;;;;;5072736;28;20052;-82
2023/04/09 04:35:12;;;;;;;40.25;21.98;;;7.60;99.90;;;;;;5071257;28;20412;-82
2023/04/09 04:37:37;;;;;;;38.80;22.40;;;6.70;99.90;;;;;;5073093;28;20045;-82
2023/04/09 04:40:04;;;;;;;38.77;21.33;;;6.70;99.90;;;;;;5070730;28;20043;-82
2023/04/09 04:42:30;;;;;;;39.95;21.73;;;6.70;99.90;;;;;;5071699;28;20052;-82
2023/04/09 04:44:55;;;;;;;41.22;21.80;;;6.70;99.90;;;;;;5071417;28;20067;-82
2023/04/09 04:47:21;;;;;;;40.47;21.48;;;7.50;99.90;;;;;;5071124;28;20416;-81
2023/04/09 04:49:46;;;;;;;39.55;21.58;;;6.70;99.90;;;;;;5071878;28;20079;-82
2023/04/09 04:52:12;;;;;;;41.22;22.15;;;6.70;99.90;;;;;;5071095;28;20093;-82
2023/04/09 04:54:39;;;;;;;43.40;22.25;;;6.70;99.90;;;;;;5072152;28;20047;-81
2023/04/09 04:57:04;;;;;;;37.15;20.75;;;6.70;99.90;;;;;;5072163;28;20044;-81
2023/04/09 04:59:30;;;;;;;39.47;21.38;;;6.70;99.90;;;;;;5071342;28;20052;-81
2023/04/09 05:01:56;;;;;;;39.13;21.67;;;6.90;99.90;;;;;;5070356;28;20084;-82
2023/04/09 05:04:21;;;;;;;40.20;21.10;;;6.70;99.90;;;;;;5071809;28;20048;-81
2023/04/09 05:06:47;;;;;;;40.53;22.05;;;6.70;99.90;;;;;;5071863;28;20040;-82
2023/04/09 05:09:13;;;;;;;41.88;22.05;;;6.80;99.90;;;;;;5070440;28;20127;-82
2023/04/09 05:11:38;;;;;;;41.42;22.35;;;7.90;99.90;;;;;;5070867;28;20048;-82
2023/04/09 05:14:05;;;;;;;41.35;22.30;;;6.80;99.90;;;;;;5071718;28;20040;-82
2023/04/09 05:16:30;;;;;;;39.90;21.73;;;6.80;99.90;;;;;;5072837;28;20083;-82
2023/04/09 05:18:56;;;;;;;41.55;21.73;;;6.80;99.90;;;;;;5070943;28;20448;-82
2023/04/09 05:21:22;;;;;;;40.83;21.25;;;6.80;99.90;;;;;;5070286;28;20041;-81
2023/04/09 05:23:50;;;;;;;40.17;21.88;;;6.80;99.90;;;;;;5071531;28;20083;-90
2023/04/09 05:35:23;;;;;;;38.67;21.55;;;6.70;99.90;;;;;;5943532;23;20030;-90
2023/04/09 05:50:00;;;;;;;47.58;23.48;;;5.30;99.90;;;;;;4971416;28;20517;-91
2023/04/09 05:53:23;;;;;;;;;;;;;;;;;;;;;
2023/04/09 05:56:36;;;;;;;49.70;26.38;;;6.40;99.90;;;;;;5065976;22;20518;-88
2023/04/09 06:05:31;;;;;;;50.50;27.37;;;7.60;99.90;;;;;;4997087;23;20050;-91
2023/04/09 06:17:32;;;;;;;52.07;28.47;;;6.30;99.90;;;;;;5871024;22;20112;-87
2023/04/09 06:24:28;;;;;;;57.20;30.20;;;5.40;99.90;;;;;;5080601;28;20086;-87
2023/04/09 06:27:26;;;;;;;55.07;29.93;;;6.00;99.90;;;;;;5067336;28;20137;-87
2023/04/09 06:30:08;;;;;;;56.83;30.27;;;6.00;99.90;;;;;;5091282;28;20040;-87
2023/04/09 06:32:34;;;;;;;61.03;29.70;;;6.40;99.90;;;;;;5086731;28;20126;-87
2023/04/09 06:35:15;;;;;;;53.92;29.95;;;6.40;99.90;;;;;;5068393;28;20115;-87
2023/04/09 06:37:56;;;;;;;51.08;28.35;;;6.50;99.90;;;;;;5069854;23;20057;-87
2023/04/09 06:40:23;;;;;;;52.33;27.92;;;6.50;99.90;;;;;;5091705;28;20047;-88
2023/04/09 06:42:57;;;;;;;52.05;29.17;;;6.50;99.90;;;;;;5068952;28;20037;-86
2023/04/09 06:45:30;;;;;;;51.80;28.65;;;6.20;99.90;;;;;;5074593;28;20052;-90
2023/04/09 07:10:06;;;;;;;46.28;25.90;;;7.10;99.90;;;;;;6159385;22;20229;-89
2023/04/09 07:12:39;;;;;;;48.42;25.83;;;7.20;99.90;;;;;;4974607;28;20482;-86
2023/04/09 07:15:24;;;;;;;43.88;24.85;;;8.20;99.90;;;;;;4959507;28;20047;-86
2023/04/09 07:18:11;;;;;;;44.63;25.10;;;7.30;99.90;;;;;;4966383;28;20368;-88
2023/04/09 07:24:16;;;;;;;42.58;25.33;;;7.40;99.90;;;;;;4944180;28;20057;-88
2023/04/09 07:26:42;;;;;;;44.92;24.85;;;7.70;99.90;;;;;;4955796;28;20526;-88
2023/04/09 07:29:27;;;;;;;42.83;25.30;;;9.10;99.90;;;;;;4949224;28;20049;-90
2023/04/09 07:31:52;;;;;;;44.80;26.00;;;7.40;99.90;;;;;;4974467;28;20045;-90
2023/04/09 07:34:19;;;;;;;42.85;25.15;;;8.00;99.90;;;;;;4974117;28;20047;-88
2023/04/09 07:37:02;;;;;;;44.33;25.63;;;8.10;99.90;;;;;;4975029;28;20049;-87
2023/04/09 07:39:41;;;;;;;43.88;25.10;;;7.00;99.90;;;;;;4974431;28;20047;-87
2023/04/09 07:42:07;;;;;;;42.63;25.13;;;9.30;99.90;;;;;;4984351;22;20129;-88
2023/04/09 07:44:51;;;;;;;44.97;25.60;;;8.00;99.90;;;;;;5013838;28;20129;-89
2023/04/09 07:47:30;;;;;;;44.20;24.80;;;7.90;99.90;;;;;;5055220;22;20178;-88
2023/04/09 07:50:01;;;;;;;46.13;25.73;;;8.00;99.90;;;;;;5034386;28;20059;-90
2023/04/09 07:52:41;;;;;;;44.53;25.38;;;8.60;99.90;;;;;;5034070;28;20064;-88
2023/04/09 07:59:02;;;;;;;44.58;26.30;;;7.50;99.90;;;;;;4972188;28;20137;-88
2023/04/09 08:01:44;;;;;;;44.60;25.87;;;7.30;99.90;;;;;;5013633;28;20219;-88
2023/04/09 08:04:30;;;;;;;45.38;25.17;;;8.70;99.90;;;;;;5025688;28;20092;-88
2023/04/09 08:07:18;;;;;;;46.70;26.77;;;8.50;99.90;;;;;;5039119;28;20048;-87
2023/04/09 08:10:03;;;;;;;43.22;25.70;;;8.10;99.90;;;;;;5042080;28;20103;-87
2023/04/09 08:12:48;;;;;;;42.97;25.60;;;8.60;99.90;;;;;;5039952;28;20041;-89
2023/04/09 08:15:14;;;;;;;44.92;26.05;;;9.80;99.90;;;;;;5051384;22;20048;-90
2023/04/09 08:18:05;;;;;;;49.03;26.85;;;8.60;99.90;;;;;;5014313;28;20416;-89
2023/04/09 08:20:52;;;;;;;42.50;26.15;;;8.60;99.90;;;;;;5061446;23;20053;-89
2023/04/09 08:23:30;;;;;;;40.92;25.15;;;10.20;99.90;;;;;;5013200;28;20046;-89
2023/04/09 08:26:21;;;;;;;43.88;25.40;;;10.30;99.90;;;;;;5000360;28;20050;-87
2023/04/09 08:29:15;;;;;;;43.13;25.02;;;9.10;99.90;;;;;;5014062;28;20037;-88
2023/04/09 08:31:51;;;;;;;39.97;23.85;;;9.10;99.90;;;;;;5008142;28;20137;-89
2023/04/09 08:34:19;;;;;;;41.47;25.15;;;9.00;99.90;;;;;;5004280;28;20386;-87
2023/04/09 08:40:37;;;;;;;40.53;24.33;;;10.90;99.90;;;;;;4953033;28;20050;-88
2023/04/09 08:43:23;;;;;;;41.92;24.83;;;9.40;99.90;;;;;;4947779;28;20070;-89
2023/04/09 08:51:20;;;;;;;40.22;25.13;;;9.80;99.90;;;;;;5279125;22;20054;-88
2023/04/09 08:53:49;;;;;;;40.25;24.95;;;10.90;99.90;;;;;;5031862;28;20458;-86
2023/04/09 08:56:33;;;;;;;36.25;23.45;;;9.90;99.90;;;;;;5032063;28;20041;-89
2023/04/09 08:59:04;;;;;;;40.55;24.10;;;10.10;99.90;;;;;;5052784;28;20092;-86
2023/04/09 09:01:51;;;;;;;38.13;23.25;;;11.70;99.90;;;;;;5032208;28;20097;-85
2023/04/09 09:04:46;;;;;;;40.45;23.45;;;10.00;99.90;;;;;;5030142;28;20053;-83
2023/04/09 09:07:12;;;;;;;36.78;22.65;;;11.10;99.90;;;;;;5079180;22;20041;-84
2023/04/09 09:09:51;;;;;;;37.65;22.80;;;10.40;99.90;;;;;;4994636;28;20058;-84
2023/04/09 09:12:50;;;;;;;38.03;23.65;;;10.50;99.90;;;;;;4993350;28;20060;-84
2023/04/09 09:15:28;;;;;;;38.97;24.63;;;11.20;99.90;;;;;;4978499;28;20058;-84
2023/04/09 09:17:57;;;;;;;38.22;24.05;;;10.70;99.90;;;;;;4995426;28;20057;-84
2023/04/09 09:20:23;;;;;;;36.63;23.13;;;10.80;99.90;;;;;;4994288;28;20485;-85
2023/04/09 09:22:51;;;;;;;38.95;24.30;;;12.00;99.90;;;;;;5012266;28;20092;-84
2023/04/09 09:25:17;;;;;;;35.30;22.98;;;10.90;99.90;;;;;;5012084;28;20128;-85
2023/04/09 09:27:42;;;;;;;39.30;24.20;;;10.80;99.90;;;;;;5009980;28;20525;-85
2023/04/09 09:30:38;;;;;;;37.92;23.20;;;9.90;99.90;;;;;;4994706;28;20049;-86
2023/04/09 09:33:14;;;;;;;36.30;23.52;;;10.40;99.90;;;;;;5027760;28;20038;-85
2023/04/09 09:35:53;;;;;;;37.88;23.50;;;12.40;99.90;;;;;;5027295;28;20493;-84
2023/04/09 09:38:19;;;;;;;38.65;24.02;;;11.80;99.90;;;;;;5011896;28;20080;-85
2023/04/09 09:44:52;;;;;;;36.33;23.05;;;11.30;99.90;;;;;;5029481;28;20063;-86
2023/04/09 09:47:20;;;;;;;36.33;23.58;;;11.50;99.90;;;;;;5030582;28;20041;-85
2023/04/09 09:49:53;;;;;;;37.42;23.48;;;12.70;99.90;;;;;;5031817;28;20129;-88
2023/04/09 09:52:25;;;;;;;35.70;23.45;;;11.90;99.90;;;;;;5032053;28;20100;-87
2023/04/09 09:55:04;;;;;;;38.00;23.83;;;12.90;99.90;;;;;;5033887;28;20393;-85
2023/04/09 09:57:32;;;;;;;37.90;23.50;;;11.90;99.90;;;;;;5042159;22;20053;-85
2023/04/09 10:00:02;;;;;;;36.67;24.02;;;12.80;99.90;;;;;;5036446;28;20383;-87
2023/04/09 10:02:38;;;;;;;36.38;23.63;;;12.10;99.90;;;;;;5034325;28;20037;-88
2023/04/09 10:05:06;;;;;;;35.35;24.17;;;12.30;99.90;;;;;;5049599;28;20044;-87
2023/04/09 10:07:41;;;;;;;34.28;23.13;;;12.40;99.90;;;;;;5047741;28;20037;-87
2023/04/09 10:10:08;;;;;;;35.15;24.15;;;12.30;99.90;;;;;;5038702;28;20065;-90
2023/04/09 10:12:35;;;;;;;36.10;23.42;;;12.30;99.90;;;;;;5044054;22;20057;-95
2023/04/09 10:15:19;;;;;;;35.60;22.88;;;12.50;99.90;;;;;;5023569;28;20038;-93
2023/04/09 10:17:53;;;;;;;;;;;13.50;99.90;;;;;;5019117;28;20038;-93
2023/04/09 10:21:06;;;;;;;37.70;24.13;;;13.20;99.90;;;;;;5001109;28;20013;-90
2023/04/09 10:23:50;;;;;;;32.00;21.70;;;12.80;99.90;;;;;;5016852;28;20046;-91
2023/04/09 10:26:19;;;;;;;;;;;13.50;99.90;;;;;;4998605;28;20038;-88
2023/04/09 10:29:07;;;;;;;32.33;21.67;;;14.40;99.90;;;;;;4998289;28;19928;-89
2023/04/09 10:31:51;;;;;;;34.92;23.13;;;13.20;99.90;;;;;;5014127;28;20069;-90
2023/04/09 10:34:20;;;;;;;33.92;22.58;;;13.20;99.90;;;;;;5016683;28;20065;-92
2023/04/09 10:37:06;;;;;;;33.53;22.17;;;14.60;99.90;;;;;;5016061;28;20045;-90
2023/04/09 10:39:46;;;;;;;31.88;21.17;;;13.80;99.90;;;;;;4998052;28;20050;-90
2023/04/09 10:42:26;;;;;;;30.67;20.77;;;14.70;99.90;;;;;;5014949;28;20084;-89
2023/04/09 10:45:05;;;;;;;30.45;21.13;;;14.90;99.90;;;;;;5015722;28;20085;-89
2023/04/09 10:47:36;;;;;;;32.60;21.92;;;13.80;99.90;;;;;;5015393;28;20057;-90
2023/04/09 10:50:24;;;;;;;30.50;20.77;;;13.60;99.90;;;;;;4998279;28;20050;-88
2023/04/09 10:52:59;;;;;;;29.67;19.70;;;13.70;99.90;;;;;;4997747;28;20049;-89
2023/04/09 10:55:37;;;;;;;27.63;18.95;;;14.90;99.90;;;;;;5014017;28;20156;-89
2023/04/09 10:58:06;;;;;;;29.63;20.27;;;14.00;99.90;;;;;;5014654;28;20054;-88
2023/04/09 11:00:42;;;;;;;29.80;20.45;;;14.30;99.90;;;;;;5029802;28;20132;-88
2023/04/09 11:03:08;;;;;;;29.85;20.85;;;14.50;99.90;;;;;;5015463;28;20042;-89
2023/04/09 11:05:37;;;;;;;27.42;18.27;;;14.90;99.90;;;;;;4997015;28;20041;-93
2023/04/09 11:08:11;;;;;;;26.85;18.55;;;15.30;99.90;;;;;;5014771;28;20049;-90
2023/04/09 11:11:00;;;;;;;27.83;18.42;;;15.40;99.90;;;;;;5001815;28;20041;-87
2023/04/09 11:13:44;;;;;;;26.80;18.65;;;15.90;99.90;;;;;;5015387;28;20050;-93
2023/04/09 11:19:12;;;;;;;25.05;17.85;;;15.60;99.90;;;;;;4977662;28;20134;-90
2023/04/09 11:21:50;;;;;;;28.33;19.05;;;15.50;99.90;;;;;;5014402;28;20050;-92
2023/04/09 11:28:05;;;;;;;26.85;19.38;;;15.00;99.90;;;;;;5306842;22;20075;-90
2023/04/09 11:30:40;;;;;;;29.30;19.67;;;14.70;99.90;;;;;;5079488;28;20056;-89
2023/04/09 11:36:44;;;;;;;51.15;31.13;;;14.60;99.90;;;;;;5087814;28;20079;-89
2023/04/09 11:39:27;;;;;;;26.02;18.45;;;14.80;99.90;;;;;;5060227;28;20441;-88
2023/04/09 11:42:15;;;;;;;24.15;15.93;;;15.40;99.90;;;;;;5079306;28;20040;-89
2023/04/09 11:44:43;;;;;;;23.42;14.65;;;15.40;99.90;;;;;;5079048;28;20044;-89
2023/04/09 11:47:53;;;;;;;21.40;13.85;;;15.70;99.90;;;;;;5070571;28;20044;-87
2023/04/09 11:51:11;;;;;;;22.42;14.88;;;15.60;99.90;;;;;;4999958;22;20303;-86
2023/04/09 11:54:04;;;;;;;21.48;14.90;;;15.70;99.90;;;;;;4999627;28;20567;-86
2023/04/09 11:56:34;;;;;;;21.40;14.93;;;15.80;99.90;;;;;;5005379;28;20080;-86
2023/04/09 11:59:21;;;;;;;23.77;15.98;;;16.80;99.90;;;;;;5026625;23;20045;-86
2023/04/09 12:02:16;;;;;;;22.08;15.05;;;15.60;99.90;;;;;;5023198;28;20040;-86
2023/04/09 12:05:35;;;;;;;22.95;15.65;;;15.30;99.90;;;;;;5039822;28;20041;-86
2023/04/09 12:08:33;;;;;;;21.05;15.00;;;15.30;99.90;;;;;;5021234;28;20042;-86
2023/04/09 12:14:23;;;;;;;22.70;15.10;;;15.90;99.90;;;;;;5006822;28;20136;-87
2023/04/09 12:17:00;;;;;;;22.23;14.38;;;15.70;99.90;;;;;;5023434;28;20128;-87
2023/04/09 12:19:37;;;;;;;21.02;14.43;;;16.60;99.90;;;;;;5022942;28;20430;-87
2023/04/09 12:22:03;;;;;;;22.13;15.15;;;15.40;99.90;;;;;;5030664;28;20037;-87
2023/04/09 12:24:44;;;;;;;21.25;14.55;;;16.10;99.90;;;;;;5025619;28;20099;-86
2023/04/09 12:27:12;;;;;;;22.23;15.25;;;15.30;99.90;;;;;;5040416;28;20033;-86
2023/04/09 12:30:15;;;;;;;21.98;14.63;;;15.50;99.90;;;;;;5040435;28;20527;-86
2023/04/09 12:32:43;;;;;;;20.85;13.93;;;16.10;99.90;;;;;;5022085;28;20056;-88
2023/04/09 12:35:13;;;;;;;24.27;14.60;;;16.20;99.90;;;;;;5022705;28;20029;-87
2023/04/09 12:37:39;;;;;;;22.40;14.73;;;17.20;99.90;;;;;;5021954;28;20092;-87
2023/04/09 12:40:18;;;;;;;22.30;14.95;;;17.10;99.90;;;;;;5022042;28;20077;-87
2023/04/09 12:42:45;;;;;;;21.60;14.35;;;16.10;99.90;;;;;;5042106;28;20041;-86
2023/04/09 12:45:12;;;;;;;20.83;14.48;;;16.40;99.90;;;;;;5051751;28;20093;-87
2023/04/09 12:48:03;;;;;;;22.42;13.85;;;16.30;99.90;;;;;;5038357;28;20112;-87
2023/04/09 12:50:55;;;;;;;20.77;14.50;;;16.40;99.90;;;;;;5038022;28;20056;-87
2023/04/09 12:53:20;;;;;;;22.73;14.95;;;16.40;99.90;;;;;;4973325;23;20066;-87
2023/04/09 12:55:55;;;;;;;22.13;14.85;;;17.10;99.90;;;;;;5021706;28;20490;-86
2023/04/09 12:58:21;;;;;;;22.90;15.25;;;16.70;99.90;;;;;;5001094;28;20072;-87
2023/04/09 13:01:10;;;;;;;21.80;14.90;;;17.30;99.90;;;;;;5006232;28;20050;-86
2023/04/09 13:03:35;;;;;;;21.92;14.70;;;16.20;99.90;;;;;;5009678;28;20182;-86
2023/04/09 13:06:16;;;;;;;23.00;14.68;;;16.60;99.90;;;;;;5019820;28;20124;-87
2023/04/09 13:08:42;;;;;;;20.98;14.80;;;16.70;99.90;;;;;;5035970;28;20048;-87
2023/04/09 13:11:20;;;;;;;21.02;14.52;;;17.60;99.90;;;;;;5005560;28;20085;-87
2023/04/09 13:17:38;;;;;;;21.85;15.35;;;16.90;99.90;;;;;;5018679;28;20096;-87
2023/04/09 13:20:31;;;;;;;21.98;15.43;;;17.20;99.90;;;;;;5019107;28;20056;-86
2023/04/09 13:22:56;;;;;;;22.33;15.00;;;17.10;99.90;;;;;;5003792;28;20049;-86
2023/04/09 13:25:34;;;;;;;21.17;14.48;;;17.10;99.90;;;;;;5001042;28;20052;-86
2023/04/09 13:27:59;;;;;;;22.38;14.63;;;17.30;99.90;;;;;;4998882;28;20042;-87
2023/04/09 13:30:53;;;;;;;21.13;14.40;;;17.40;99.90;;;;;;5017449;28;20045;-86
2023/04/09 13:33:19;;;;;;;;;;;17.60;99.90;;;;;;4972377;28;20057;-87
2023/04/09 13:35:59;;;;;;;20.85;14.23;;;18.70;99.90;;;;;;5008345;28;20004;-87
2023/04/09 13:39:16;;;;;;;20.10;14.20;;;17.60;99.90;;;;;;5018458;28;20124;-87
2023/04/09 13:42:03;;;;;;;22.83;15.02;;;17.80;99.90;;;;;;4999174;28;20096;-87
2023/04/09 13:44:50;;;;;;;20.67;14.30;;;17.50;99.90;;;;;;5019914;28;20045;-87
2023/04/09 13:47:16;;;;;;;20.35;14.02;;;18.10;99.90;;;;;;5018708;28;20087;-87
2023/04/09 13:49:58;;;;;;;19.95;14.10;;;18.20;99.90;;;;;;5000207;28;20104;-87
2023/04/09 13:52:51;;;;;;;21.08;15.10;;;18.40;99.90;;;;;;5106935;22;20053;-85
2023/04/09 13:55:36;;;;;;;20.55;14.13;;;18.00;99.90;;;;;;5038840;28;20083;-84
2023/04/09 13:58:01;;;;;;;20.02;14.13;;;17.60;99.90;;;;;;5044902;28;20049;-86
2023/04/09 14:00:52;;;;;;;20.33;14.48;;;18.00;99.90;;;;;;5036460;28;20052;-86
2023/04/09 14:03:17;;;;;;;20.33;14.18;;;17.30;99.90;;;;;;5034010;28;20065;-87
2023/04/09 14:05:58;;;;;;;21.77;14.45;;;17.20;99.90;;;;;;5037546;28;20072;-87
2023/04/09 14:08:24;;;;;;;20.27;13.68;;;16.90;99.90;;;;;;5035127;22;20056;-86
2023/04/09 14:11:30;;;;;;;19.55;13.43;;;16.80;99.90;;;;;;5010775;28;20075;-87
2023/04/09 14:14:10;;;;;;;19.83;13.45;;;17.00;99.90;;;;;;5021176;28;20049;-87
2023/04/09 14:16:36;;;;;;;20.20;12.95;;;17.00;99.90;;;;;;5017653;23;20061;-89
2023/04/09 14:19:02;;;;;;;21.08;13.75;;;16.00;99.90;;;;;;5001389;28;20053;-90
2023/04/09 14:21:36;;;;;;;19.25;12.57;;;15.90;99.90;;;;;;5000800;28;20131;-89
2023/04/09 14:24:02;;;;;;;18.58;12.38;;;15.80;99.90;;;;;;5019557;28;20068;-86
2023/04/09 14:26:51;;;;;;;18.55;12.00;;;15.70;99.90;;;;;;4996725;28;20041;-86
2023/04/09 14:29:35;;;;;;;18.40;12.40;;;16.80;99.90;;;;;;5016807;28;20042;-86
2023/04/09 14:32:04;;;;;;;20.38;13.02;;;16.10;99.90;;;;;;5003683;28;20128;-86
2023/04/09 14:34:30;;;;;;;18.67;12.45;;;15.70;99.90;;;;;;5017270;28;20129;-85
2023/04/09 14:36:55;;;;;;;19.65;12.57;;;15.60;99.90;;;;;;5001087;28;20045;-85
2023/04/09 14:39:21;;;;;;;19.33;12.57;;;15.70;99.90;;;;;;4997630;28;20483;-85
2023/04/09 14:41:47;;;;;;;20.15;13.35;;;15.30;99.90;;;;;;5020913;28;20101;-85
2023/04/09 14:44:12;;;;;;;18.60;12.30;;;15.40;99.90;;;;;;5004577;28;20046;-86
2023/04/09 14:46:38;;;;;;;18.50;12.18;;;15.10;99.90;;;;;;5022448;28;20033;-86
2023/04/09 14:49:03;;;;;;;18.63;11.98;;;15.10;99.90;;;;;;5021284;28;20493;-85